sensor_id;sensor_type;location;lat;lon;timestamp;pressure;altitude;pressure_sealevel;temperature;humidity
36062;BME280;22123;52.412;20.970;2024-01-15T00:00:59;98480.97;;;-0.42;100.00
36062;BME280;22123;52.412;20.970;2024-01-15T00:03:25;98447.38;;;-0.50;100.00
36062;BME280;22123;52.412;20.970;2024-01-15T00:05:51;98459.53;;;-0.57;100.00
36062;BME280;22123;52.412;20.970;2024-01-15T00:08:17;98478.78;;;-0.47;100.00
36062;BME280;22123;52.412;20.970;2024-01-15T00:10:43;98495.66;;;-0.30;100.00
36062;BME280;22123;52.412;20.970;2024-01-15T00:13:09;98455.06;;;-0.57;100.00
36062;BME280;22123;52.412;20.970;2024-01-15T00:15:34;98445.34;;;-0.56;100.00
36062;BME280;22123;52.412;20.970;2024-01-15T00:18:00;98440.81;;;-0.46;100.00
36062;BME280;22123;52.412;20.970;2024-01-15T00:20:26;98466.09;;;-0.25;100.00
36062;BME280;22123;52.412;20.970;2024-01-15T00:22:52;98469.06;;;-0.28;100.00
36062;BME280;22123;52.412;20.970;2024-01-15T00:25:18;98450.47;;;-0.37;100.00
36062;BME280;22123;52.412;20.970;2024-01-15T00:27:44;98436.41;;;-0.37;100.00
36062;BME280;22123;52.412;20.970;2024-01-15T00:30:10;98410.66;;;-0.53;100.00
36062;BME280;22123;52.412;20.970;2024-01-15T00:32:36;98375.31;;;-0.70;100.00
36062;BME280;22123;52.412;20.970;2024-01-15T00:35:02;98394.38;;;-0.66;100.00
36062;BME280;22123;52.412;20.970;2024-01-15T00:37:28;98398.44;;;-0.54;100.00
36062;BME280;22123;52.412;20.970;2024-01-15T00:39:54;98421.22;;;-0.35;100.00
36062;BME280;22123;52.412;20.970;2024-01-15T00:42:20;98424.41;;;-0.31;100.00
36062;BME280;22123;52.412;20.970;2024-01-15T00:44:45;98405.47;;;-0.45;100.00
36062;BME280;22123;52.412;20.970;2024-01-15T00:47:11;98387.50;;;-0.59;100.00
36062;BME280;22123;52.412;20.970;2024-01-15T00:49:37;98410.81;;;-0.37;100.00
36062;BME280;22123;52.412;20.970;2024-01-15T00:52:03;98391.53;;;-0.47;100.00
36062;BME280;22123;52.412;20.970;2024-01-15T00:54:29;98411.03;;;-0.30;100.00
36062;BME280;22123;52.412;20.970;2024-01-15T00:56:55;98381.66;;;-0.45;100.00
36062;BME280;22123;52.412;20.970;2024-01-15T00:59:21;98370.19;;;-0.54;100.00
36062;BME280;22123;52.412;20.970;2024-01-15T01:01:47;98309.44;;;-0.90;100.00
36062;BME280;22123;52.412;20.970;2024-01-15T01:04:13;98377.97;;;-0.52;100.00
36062;BME280;22123;52.412;20.970;2024-01-15T01:06:39;98383.16;;;-0.42;100.00
36062;BME280;22123;52.412;20.970;2024-01-15T01:09:05;98360.38;;;-0.61;100.00
36062;BME280;22123;52.412;20.970;2024-01-15T01:11:31;98358.28;;;-0.58;100.00
36062;BME280;22123;52.412;20.970;2024-01-15T01:13:57;98399.16;;;-0.44;100.00
36062;BME280;22123;52.412;20.970;2024-01-15T01:16:23;98384.53;;;-0.56;100.00
36062;BME280;22123;52.412;20.970;2024-01-15T01:18:49;98340.47;;;-0.74;100.00
36062;BME280;22123;52.412;20.970;2024-01-15T01:21:15;98375.84;;;-0.48;100.00
36062;BME280;22123;52.412;20.970;2024-01-15T01:23:40;98364.91;;;-0.54;100.00
36062;BME280;22123;52.412;20.970;2024-01-15T01:26:06;98371.25;;;-0.46;100.00
36062;BME280;22123;52.412;20.970;2024-01-15T01:28:32;98352.97;;;-0.58;100.00
36062;BME280;22123;52.412;20.970;2024-01-15T01:30:59;98361.25;;;-0.53;100.00
36062;BME280;22123;52.412;20.970;2024-01-15T01:33:25;98346.34;;;-0.62;100.00
36062;BME280;22123;52.412;20.970;2024-01-15T01:35:51;98355.16;;;-0.53;100.00
36062;BME280;22123;52.412;20.970;2024-01-15T01:38:17;98368.59;;;-0.46;100.00
36062;BME280;22123;52.412;20.970;2024-01-15T01:40:43;98367.28;;;-0.42;100.00
36062;BME280;22123;52.412;20.970;2024-01-15T01:43:09;98258.44;;;-1.08;100.00
36062;BME280;22123;52.412;20.970;2024-01-15T01:45:35;98328.97;;;-0.64;100.00
36062;BME280;22123;52.412;20.970;2024-01-15T01:48:01;98344.44;;;-0.51;100.00
36062;BME280;22123;52.412;20.970;2024-01-15T01:50:29;98306.25;;;-0.75;100.00
36062;BME280;22123;52.412;20.970;2024-01-15T01:52:56;98349.09;;;-0.45;100.00
36062;BME280;22123;52.412;20.970;2024-01-15T01:55:24;98340.34;;;-0.46;100.00
36062;BME280;22123;52.412;20.970;2024-01-15T01:57:51;98305.56;;;-0.59;100.00
36062;BME280;22123;52.412;20.970;2024-01-15T02:00:17;98320.25;;;-0.57;100.00
36062;BME280;22123;52.412;20.970;2024-01-15T02:02:43;98235.47;;;-1.08;100.00
36062;BME280;22123;52.412;20.970;2024-01-15T02:05:09;98293.88;;;-0.75;100.00
36062;BME280;22123;52.412;20.970;2024-01-15T02:07:35;98278.03;;;-0.75;100.00
36062;BME280;22123;52.412;20.970;2024-01-15T02:10:01;98307.03;;;-0.57;100.00
36062;BME280;22123;52.412;20.970;2024-01-15T02:12:27;98316.63;;;-0.56;100.00
36062;BME280;22123;52.412;20.970;2024-01-15T02:14:53;98296.91;;;-0.69;100.00
36062;BME280;22123;52.412;20.970;2024-01-15T02:17:19;98284.97;;;-0.74;100.00
36062;BME280;22123;52.412;20.970;2024-01-15T02:19:45;98289.63;;;-0.67;100.00
36062;BME280;22123;52.412;20.970;2024-01-15T02:22:11;98294.13;;;-0.60;100.00
36062;BME280;22123;52.412;20.970;2024-01-15T02:24:37;98283.88;;;-0.63;100.00
36062;BME280;22123;52.412;20.970;2024-01-15T02:27:03;98289.00;;;-0.61;100.00
36062;BME280;22123;52.412;20.970;2024-01-15T02:29:29;98203.13;;;-1.10;100.00
36062;BME280;22123;52.412;20.970;2024-01-15T02:31:55;98290.06;;;-0.54;100.00
36062;BME280;22123;52.412;20.970;2024-01-15T02:34:20;98287.78;;;-0.49;100.00
36062;BME280;22123;52.412;20.970;2024-01-15T02:36:46;98230.22;;;-0.81;100.00
36062;BME280;22123;52.412;20.970;2024-01-15T02:39:12;98232.44;;;-0.77;100.00
36062;BME280;22123;52.412;20.970;2024-01-15T02:41:38;98228.84;;;-0.67;100.00
36062;BME280;22123;52.412;20.970;2024-01-15T02:44:04;98247.69;;;-0.62;100.00
36062;BME280;22123;52.412;20.970;2024-01-15T02:46:30;98214.91;;;-0.78;100.00
36062;BME280;22123;52.412;20.970;2024-01-15T02:48:56;98256.38;;;-0.52;100.00
36062;BME280;22123;52.412;20.970;2024-01-15T02:51:22;98237.19;;;-0.54;100.00
36062;BME280;22123;52.412;20.970;2024-01-15T02:53:50;98260.72;;;-0.43;100.00
36062;BME280;22123;52.412;20.970;2024-01-15T02:56:16;98255.13;;;-0.40;100.00
36062;BME280;22123;52.412;20.970;2024-01-15T02:58:41;98200.09;;;-0.71;100.00
36062;BME280;22123;52.412;20.970;2024-01-15T03:01:07;98206.19;;;-0.70;100.00
36062;BME280;22123;52.412;20.970;2024-01-15T03:03:33;98188.03;;;-0.73;100.00
36062;BME280;22123;52.412;20.970;2024-01-15T03:05:59;98196.66;;;-0.63;100.00
36062;BME280;22123;52.412;20.970;2024-01-15T03:08:25;98230.13;;;-0.45;100.00
36062;BME280;22123;52.412;20.970;2024-01-15T03:10:51;98207.41;;;-0.64;100.00
36062;BME280;22123;52.412;20.970;2024-01-15T03:13:17;98214.03;;;-0.60;100.00
36062;BME280;22123;52.412;20.970;2024-01-15T03:15:43;98207.06;;;-0.69;100.00
36062;BME280;22123;52.412;20.970;2024-01-15T03:18:09;98183.84;;;-0.84;100.00
36062;BME280;22123;52.412;20.970;2024-01-15T03:20:35;98207.56;;;-0.66;100.00
36062;BME280;22123;52.412;20.970;2024-01-15T03:23:00;98180.25;;;-0.75;100.00
36062;BME280;22123;52.412;20.970;2024-01-15T03:25:26;98163.16;;;-0.89;100.00
36062;BME280;22123;52.412;20.970;2024-01-15T03:27:52;98169.69;;;-0.75;100.00
36062;BME280;22123;52.412;20.970;2024-01-15T03:30:18;98158.88;;;-0.90;100.00
36062;BME280;22123;52.412;20.970;2024-01-15T03:32:44;98179.28;;;-0.74;100.00
36062;BME280;22123;52.412;20.970;2024-01-15T03:35:10;98109.34;;;-1.14;100.00
36062;BME280;22123;52.412;20.970;2024-01-15T03:37:36;98180.63;;;-0.69;100.00
36062;BME280;22123;52.412;20.970;2024-01-15T03:40:02;98152.06;;;-0.92;100.00
36062;BME280;22123;52.412;20.970;2024-01-15T03:42:27;98182.75;;;-0.73;100.00
36062;BME280;22123;52.412;20.970;2024-01-15T03:44:53;98171.94;;;-0.80;100.00
36062;BME280;22123;52.412;20.970;2024-01-15T03:47:19;98183.63;;;-0.64;100.00
36062;BME280;22123;52.412;20.970;2024-01-15T03:49:45;98155.50;;;-0.74;100.00
36062;BME280;22123;52.412;20.970;2024-01-15T03:52:11;98151.56;;;-0.69;100.00
36062;BME280;22123;52.412;20.970;2024-01-15T03:54:37;98120.69;;;-0.95;100.00
36062;BME280;22123;52.412;20.970;2024-01-15T03:57:03;98102.69;;;-1.00;100.00
36062;BME280;22123;52.412;20.970;2024-01-15T03:59:29;98125.41;;;-0.81;100.00
36062;BME280;22123;52.412;20.970;2024-01-15T04:01:54;98134.38;;;-0.65;100.00
36062;BME280;22123;52.412;20.970;2024-01-15T04:04:20;98117.31;;;-0.79;100.00
36062;BME280;22123;52.412;20.970;2024-01-15T04:06:46;98117.16;;;-0.78;100.00
36062;BME280;22123;52.412;20.970;2024-01-15T04:09:13;98100.44;;;-0.86;100.00
36062;BME280;22123;52.412;20.970;2024-01-15T04:11:39;98093.81;;;-0.91;100.00
36062;BME280;22123;52.412;20.970;2024-01-15T04:14:05;98105.91;;;-0.80;100.00
36062;BME280;22123;52.412;20.970;2024-01-15T04:16:30;98122.34;;;-0.68;100.00
36062;BME280;22123;52.412;20.970;2024-01-15T04:18:56;98127.31;;;-0.57;100.00
36062;BME280;22123;52.412;20.970;2024-01-15T04:21:22;98100.50;;;-0.70;100.00
36062;BME280;22123;52.412;20.970;2024-01-15T04:23:48;98119.91;;;-0.53;100.00
36062;BME280;22123;52.412;20.970;2024-01-15T04:26:14;98119.91;;;-0.53;100.00
36062;BME280;22123;52.412;20.970;2024-01-15T04:28:40;98110.63;;;-0.57;100.00
36062;BME280;22123;52.412;20.970;2024-01-15T04:31:06;98080.00;;;-0.76;100.00
36062;BME280;22123;52.412;20.970;2024-01-15T04:33:32;98073.75;;;-0.75;100.00
36062;BME280;22123;52.412;20.970;2024-01-15T04:36:02;98042.97;;;-0.84;100.00
36062;BME280;22123;52.412;20.970;2024-01-15T04:38:27;98053.78;;;-0.69;100.00
36062;BME280;22123;52.412;20.970;2024-01-15T04:40:53;98053.69;;;-0.86;100.00
36062;BME280;22123;52.412;20.970;2024-01-15T04:43:19;98048.78;;;-0.81;100.00
36062;BME280;22123;52.412;20.970;2024-01-15T04:45:45;98057.03;;;-0.76;100.00
36062;BME280;22123;52.412;20.970;2024-01-15T04:48:11;98080.75;;;-0.58;100.00
36062;BME280;22123;52.412;20.970;2024-01-15T04:50:37;98086.53;;;-0.54;100.00
36062;BME280;22123;52.412;20.970;2024-01-15T04:53:03;98068.00;;;-0.62;100.00
36062;BME280;22123;52.412;20.970;2024-01-15T04:55:29;98037.22;;;-0.80;100.00
36062;BME280;22123;52.412;20.970;2024-01-15T04:57:55;98064.22;;;-0.60;100.00
36062;BME280;22123;52.412;20.970;2024-01-15T05:00:20;98021.34;;;-0.80;100.00
36062;BME280;22123;52.412;20.970;2024-01-15T05:02:46;98033.94;;;-0.74;100.00
36062;BME280;22123;52.412;20.970;2024-01-15T05:05:12;98036.06;;;-0.77;100.00
36062;BME280;22123;52.412;20.970;2024-01-15T05:07:39;98023.03;;;-0.79;100.00
36062;BME280;22123;52.412;20.970;2024-01-15T05:10:06;98069.91;;;-0.46;100.00
36062;BME280;22123;52.412;20.970;2024-01-15T05:12:33;98051.16;;;-0.61;100.00
36062;BME280;22123;52.412;20.970;2024-01-15T05:14:59;98047.69;;;-0.62;100.00
36062;BME280;22123;52.412;20.970;2024-01-15T05:17:24;98056.09;;;-0.66;100.00
36062;BME280;22123;52.412;20.970;2024-01-15T05:19:50;98012.78;;;-0.82;100.00
36062;BME280;22123;52.412;20.970;2024-01-15T05:22:16;98003.56;;;-0.78;100.00
36062;BME280;22123;52.412;20.970;2024-01-15T05:24:42;98053.69;;;-0.51;100.00
36062;BME280;22123;52.412;20.970;2024-01-15T05:27:08;98034.44;;;-0.70;100.00
36062;BME280;22123;52.412;20.970;2024-01-15T05:29:34;98036.97;;;-0.60;100.00
36062;BME280;22123;52.412;20.970;2024-01-15T05:32:00;98006.22;;;-0.69;100.00
36062;BME280;22123;52.412;20.970;2024-01-15T05:34:26;98039.09;;;-0.64;100.00
36062;BME280;22123;52.412;20.970;2024-01-15T05:36:52;98003.34;;;-0.84;100.00
36062;BME280;22123;52.412;20.970;2024-01-15T05:39:17;98003.38;;;-0.76;100.00
36062;BME280;22123;52.412;20.970;2024-01-15T05:41:43;98042.59;;;-0.55;100.00
36062;BME280;22123;52.412;20.970;2024-01-15T05:44:09;98045.75;;;-0.51;100.00
36062;BME280;22123;52.412;20.970;2024-01-15T05:46:35;98029.38;;;-0.55;100.00
36062;BME280;22123;52.412;20.970;2024-01-15T05:49:01;98020.94;;;-0.59;100.00
36062;BME280;22123;52.412;20.970;2024-01-15T05:51:27;98004.72;;;-0.64;100.00
36062;BME280;22123;52.412;20.970;2024-01-15T05:53:53;98026.59;;;-0.54;100.00
36062;BME280;22123;52.412;20.970;2024-01-15T05:56:18;98016.97;;;-0.63;100.00
36062;BME280;22123;52.412;20.970;2024-01-15T05:58:44;98033.53;;;-0.44;100.00
36062;BME280;22123;52.412;20.970;2024-01-15T06:01:10;98013.00;;;-0.59;100.00
36062;BME280;22123;52.412;20.970;2024-01-15T06:03:36;98033.22;;;-0.41;100.00
36062;BME280;22123;52.412;20.970;2024-01-15T06:06:02;98015.50;;;-0.57;100.00
36062;BME280;22123;52.412;20.970;2024-01-15T06:08:28;98030.22;;;-0.55;100.00
36062;BME280;22123;52.412;20.970;2024-01-15T06:10:56;98009.38;;;-0.66;100.00
36062;BME280;22123;52.412;20.970;2024-01-15T06:13:22;98001.28;;;-0.64;100.00
36062;BME280;22123;52.412;20.970;2024-01-15T06:15:48;98024.63;;;-0.43;100.00
36062;BME280;22123;52.412;20.970;2024-01-15T06:18:13;98006.06;;;-0.60;100.00
36062;BME280;22123;52.412;20.970;2024-01-15T06:20:39;98009.41;;;-0.58;100.00
36062;BME280;22123;52.412;20.970;2024-01-15T06:23:05;97987.91;;;-0.63;100.00
36062;BME280;22123;52.412;20.970;2024-01-15T06:25:31;97980.75;;;-0.79;100.00
36062;BME280;22123;52.412;20.970;2024-01-15T06:27:57;98029.06;;;-0.44;100.00
36062;BME280;22123;52.412;20.970;2024-01-15T06:30:23;98007.75;;;-0.50;100.00
36062;BME280;22123;52.412;20.970;2024-01-15T06:32:49;98013.38;;;-0.45;100.00
36062;BME280;22123;52.412;20.970;2024-01-15T06:35:15;97976.84;;;-0.66;100.00
36062;BME280;22123;52.412;20.970;2024-01-15T06:37:40;98022.81;;;-0.34;100.00
36062;BME280;22123;52.412;20.970;2024-01-15T06:40:07;97988.91;;;-0.56;100.00
36062;BME280;22123;52.412;20.970;2024-01-15T06:42:33;97959.94;;;-0.82;100.00
36062;BME280;22123;52.412;20.970;2024-01-15T06:44:59;97982.56;;;-0.71;100.00
36062;BME280;22123;52.412;20.970;2024-01-15T06:47:25;98008.75;;;-0.51;100.00
36062;BME280;22123;52.412;20.970;2024-01-15T06:49:50;98006.59;;;-0.48;100.00
36062;BME280;22123;52.412;20.970;2024-01-15T06:52:17;97966.59;;;-0.69;100.00
36062;BME280;22123;52.412;20.970;2024-01-15T06:54:42;97974.53;;;-0.69;100.00
36062;BME280;22123;52.412;20.970;2024-01-15T06:57:08;97976.66;;;-0.65;100.00
36062;BME280;22123;52.412;20.970;2024-01-15T06:59:34;97981.44;;;-0.68;100.00
36062;BME280;22123;52.412;20.970;2024-01-15T07:02:00;97981.94;;;-0.73;100.00
36062;BME280;22123;52.412;20.970;2024-01-15T07:04:26;98020.13;;;-0.51;100.00
36062;BME280;22123;52.412;20.970;2024-01-15T07:06:52;97961.59;;;-0.81;100.00
36062;BME280;22123;52.412;20.970;2024-01-15T07:09:18;97999.16;;;-0.61;100.00
36062;BME280;22123;52.412;20.970;2024-01-15T07:11:45;97966.84;;;-0.89;100.00
36062;BME280;22123;52.412;20.970;2024-01-15T07:14:11;97946.00;;;-1.00;100.00
36062;BME280;22123;52.412;20.970;2024-01-15T07:16:37;97969.81;;;-0.92;100.00
36062;BME280;22123;52.412;20.970;2024-01-15T07:19:02;98024.72;;;-0.69;100.00
36062;BME280;22123;52.412;20.970;2024-01-15T07:21:28;97992.81;;;-0.76;100.00
36062;BME280;22123;52.412;20.970;2024-01-15T07:23:54;97995.66;;;-0.69;100.00
36062;BME280;22123;52.412;20.970;2024-01-15T07:26:20;97986.19;;;-0.80;100.00
36062;BME280;22123;52.412;20.970;2024-01-15T07:28:46;97982.41;;;-0.78;100.00
36062;BME280;22123;52.412;20.970;2024-01-15T07:31:12;97971.31;;;-0.90;100.00
36062;BME280;22123;52.412;20.970;2024-01-15T07:33:40;97980.09;;;-0.81;100.00
36062;BME280;22123;52.412;20.970;2024-01-15T07:36:06;97970.31;;;-0.89;100.00
36062;BME280;22123;52.412;20.970;2024-01-15T07:38:32;97966.81;;;-0.97;100.00
36062;BME280;22123;52.412;20.970;2024-01-15T07:40:58;97980.38;;;-0.92;100.00
36062;BME280;22123;52.412;20.970;2024-01-15T07:43:24;97980.34;;;-1.00;100.00
36062;BME280;22123;52.412;20.970;2024-01-15T07:45:50;97977.38;;;-0.97;100.00
36062;BME280;22123;52.412;20.970;2024-01-15T07:48:16;98013.47;;;-0.72;100.00
36062;BME280;22123;52.412;20.970;2024-01-15T07:50:42;97964.50;;;-1.00;100.00
36062;BME280;22123;52.412;20.970;2024-01-15T07:53:07;97987.00;;;-0.88;100.00
36062;BME280;22123;52.412;20.970;2024-01-15T07:55:33;97945.13;;;-1.17;100.00
36062;BME280;22123;52.412;20.970;2024-01-15T07:57:59;97979.56;;;-0.93;100.00
36062;BME280;22123;52.412;20.970;2024-01-15T08:00:25;97978.72;;;-0.93;100.00
36062;BME280;22123;52.412;20.970;2024-01-15T08:02:51;97986.31;;;-0.90;100.00
36062;BME280;22123;52.412;20.970;2024-01-15T08:05:17;98002.59;;;-0.60;100.00
36062;BME280;22123;52.412;20.970;2024-01-15T08:07:43;97970.88;;;-0.77;100.00
36062;BME280;22123;52.412;20.970;2024-01-15T08:10:09;98017.81;;;-0.54;100.00
36062;BME280;22123;52.412;20.970;2024-01-15T08:12:35;97973.50;;;-0.68;100.00
36062;BME280;22123;52.412;20.970;2024-01-15T08:15:00;97999.47;;;-0.56;100.00
36062;BME280;22123;52.412;20.970;2024-01-15T08:17:26;98019.66;;;-0.38;100.00
36062;BME280;22123;52.412;20.970;2024-01-15T08:19:52;98023.81;;;-0.36;100.00
36062;BME280;22123;52.412;20.970;2024-01-15T08:22:18;97990.03;;;-0.66;100.00
36062;BME280;22123;52.412;20.970;2024-01-15T08:24:44;98029.44;;;-0.39;100.00
36062;BME280;22123;52.412;20.970;2024-01-15T08:27:10;97985.44;;;-0.56;100.00
36062;BME280;22123;52.412;20.970;2024-01-15T08:29:36;98045.44;;;-0.40;100.00
36062;BME280;22123;52.412;20.970;2024-01-15T08:32:02;98003.94;;;-0.56;100.00
36062;BME280;22123;52.412;20.970;2024-01-15T08:34:28;98018.84;;;-0.39;100.00
36062;BME280;22123;52.412;20.970;2024-01-15T08:36:54;98006.91;;;-0.51;100.00
36062;BME280;22123;52.412;20.970;2024-01-15T08:39:19;98023.63;;;-0.42;100.00
36062;BME280;22123;52.412;20.970;2024-01-15T08:41:45;98035.84;;;-0.41;100.00
36062;BME280;22123;52.412;20.970;2024-01-15T08:44:12;98013.50;;;-0.55;100.00
36062;BME280;22123;52.412;20.970;2024-01-15T08:46:38;98017.78;;;-0.62;100.00
36062;BME280;22123;52.412;20.970;2024-01-15T08:49:03;97998.63;;;-0.64;100.00
36062;BME280;22123;52.412;20.970;2024-01-15T08:51:29;98009.72;;;-0.61;100.00
36062;BME280;22123;52.412;20.970;2024-01-15T08:53:58;98008.41;;;-0.48;100.00
36062;BME280;22123;52.412;20.970;2024-01-15T08:56:24;97997.50;;;-0.54;100.00
36062;BME280;22123;52.412;20.970;2024-01-15T08:58:50;97996.88;;;-0.47;100.00
36062;BME280;22123;52.412;20.970;2024-01-15T09:01:16;98035.72;;;-0.15;100.00
36062;BME280;22123;52.412;20.970;2024-01-15T09:03:42;97990.72;;;-0.48;100.00
36062;BME280;22123;52.412;20.970;2024-01-15T09:06:08;98008.13;;;-0.29;100.00
36062;BME280;22123;52.412;20.970;2024-01-15T09:08:33;98047.31;;;-0.08;100.00
36062;BME280;22123;52.412;20.970;2024-01-15T09:10:59;98050.47;;;-0.04;100.00
36062;BME280;22123;52.412;20.970;2024-01-15T09:13:25;97997.69;;;-0.47;100.00
36062;BME280;22123;52.412;20.970;2024-01-15T09:15:51;98044.34;;;-0.21;100.00
36062;BME280;22123;52.412;20.970;2024-01-15T09:18:17;98016.22;;;-0.30;100.00
36062;BME280;22123;52.412;20.970;2024-01-15T09:20:43;97997.19;;;-0.50;100.00
36062;BME280;22123;52.412;20.970;2024-01-15T09:23:09;98020.00;;;-0.25;100.00
36062;BME280;22123;52.412;20.970;2024-01-15T09:25:34;98028.63;;;-0.23;100.00
36062;BME280;22123;52.412;20.970;2024-01-15T09:28:00;98039.56;;;-0.09;100.00
36062;BME280;22123;52.412;20.970;2024-01-15T09:30:26;98028.47;;;-0.05;100.00
36062;BME280;22123;52.412;20.970;2024-01-15T09:32:52;98022.34;;;-0.13;100.00
36062;BME280;22123;52.412;20.970;2024-01-15T09:35:18;98032.94;;;-0.05;100.00
36062;BME280;22123;52.412;20.970;2024-01-15T09:37:44;98012.63;;;-0.13;100.00
36062;BME280;22123;52.412;20.970;2024-01-15T09:40:13;98038.25;;;0.03;100.00
36062;BME280;22123;52.412;20.970;2024-01-15T09:42:39;98003.50;;;-0.19;100.00
36062;BME280;22123;52.412;20.970;2024-01-15T09:45:06;98014.75;;;-0.16;100.00
36062;BME280;22123;52.412;20.970;2024-01-15T09:47:32;97996.91;;;-0.23;100.00
36062;BME280;22123;52.412;20.970;2024-01-15T09:49:58;98024.50;;;-0.01;100.00
36062;BME280;22123;52.412;20.970;2024-01-15T09:52:25;97975.22;;;-0.26;100.00
36062;BME280;22123;52.412;20.970;2024-01-15T09:54:51;98002.53;;;-0.09;100.00
36062;BME280;22123;52.412;20.970;2024-01-15T09:57:17;97977.88;;;-0.18;100.00
36062;BME280;22123;52.412;20.970;2024-01-15T09:59:45;97963.00;;;-0.11;100.00
36062;BME280;22123;52.412;20.970;2024-01-15T10:02:13;97994.91;;;0.12;100.00
36062;BME280;22123;52.412;20.970;2024-01-15T10:04:39;97972.13;;;0.03;100.00
36062;BME280;22123;52.412;20.970;2024-01-15T10:07:05;97982.53;;;0.05;100.00
36062;BME280;22123;52.412;20.970;2024-01-15T10:09:31;97987.81;;;0.05;100.00
36062;BME280;22123;52.412;20.970;2024-01-15T10:11:57;98000.88;;;0.23;100.00
36062;BME280;22123;52.412;20.970;2024-01-15T10:14:23;98013.28;;;0.14;100.00
36062;BME280;22123;52.412;20.970;2024-01-15T10:16:49;97969.47;;;-0.05;100.00
36062;BME280;22123;52.412;20.970;2024-01-15T10:19:15;98014.25;;;0.21;100.00
36062;BME280;22123;52.412;20.970;2024-01-15T10:21:41;98022.03;;;0.23;100.00
36062;BME280;22123;52.412;20.970;2024-01-15T10:24:07;98023.34;;;0.19;100.00
36062;BME280;22123;52.412;20.970;2024-01-15T10:26:33;98018.41;;;0.15;100.00
36062;BME280;22123;52.412;20.970;2024-01-15T10:28:59;97989.13;;;0.01;100.00
36062;BME280;22123;52.412;20.970;2024-01-15T10:31:26;97990.78;;;0.10;100.00
36062;BME280;22123;52.412;20.970;2024-01-15T10:33:51;98015.94;;;0.22;100.00
36062;BME280;22123;52.412;20.970;2024-01-15T10:36:17;97954.09;;;-0.10;100.00
36062;BME280;22123;52.412;20.970;2024-01-15T10:38:44;98008.81;;;0.23;100.00
36062;BME280;22123;52.412;20.970;2024-01-15T10:41:10;98019.56;;;0.21;100.00
36062;BME280;22123;52.412;20.970;2024-01-15T10:43:37;97991.59;;;0.19;100.00
36062;BME280;22123;52.412;20.970;2024-01-15T10:46:03;98001.84;;;0.30;100.00
36062;BME280;22123;52.412;20.970;2024-01-15T10:48:29;98029.28;;;0.70;100.00
36062;BME280;22123;52.412;20.970;2024-01-15T10:50:55;98000.53;;;0.42;100.00
36062;BME280;22123;52.412;20.970;2024-01-15T10:53:22;98015.72;;;0.48;100.00
36062;BME280;22123;52.412;20.970;2024-01-15T10:55:49;98001.69;;;0.48;100.00
36062;BME280;22123;52.412;20.970;2024-01-15T10:58:16;98008.94;;;0.62;100.00
36062;BME280;22123;52.412;20.970;2024-01-15T11:00:43;97958.56;;;0.06;100.00
36062;BME280;22123;52.412;20.970;2024-01-15T11:03:09;98036.41;;;0.45;100.00
36062;BME280;22123;52.412;20.970;2024-01-15T11:05:39;97989.28;;;0.32;100.00
36062;BME280;22123;52.412;20.970;2024-01-15T11:08:06;97990.63;;;0.20;100.00
36062;BME280;22123;52.412;20.970;2024-01-15T11:10:51;97979.19;;;0.03;100.00
36062;BME280;22123;52.412;20.970;2024-01-15T11:15:59;98012.91;;;0.42;100.00
36062;BME280;22123;52.412;20.970;2024-01-15T11:18:41;98016.72;;;0.47;100.00
36062;BME280;22123;52.412;20.970;2024-01-15T11:23:43;97972.56;;;0.40;100.00
36062;BME280;22123;52.412;20.970;2024-01-15T11:26:27;97976.50;;;0.52;100.00
36062;BME280;22123;52.412;20.970;2024-01-15T11:28:54;97957.19;;;0.35;100.00
36062;BME280;22123;52.412;20.970;2024-01-15T11:31:25;97960.34;;;0.22;100.00
36062;BME280;22123;52.412;20.970;2024-01-15T11:33:51;97994.34;;;0.66;100.00
36062;BME280;22123;52.412;20.970;2024-01-15T11:36:17;97928.91;;;0.27;100.00
36062;BME280;22123;52.412;20.970;2024-01-15T11:38:43;97964.28;;;0.43;100.00
36062;BME280;22123;52.412;20.970;2024-01-15T11:41:15;97989.09;;;0.50;100.00
36062;BME280;22123;52.412;20.970;2024-01-15T11:43:41;97928.59;;;0.06;100.00
36062;BME280;22123;52.412;20.970;2024-01-15T11:46:11;97965.97;;;0.03;100.00
36062;BME280;22123;52.412;20.970;2024-01-15T11:48:48;97993.25;;;0.11;100.00
36062;BME280;22123;52.412;20.970;2024-01-15T11:51:21;97944.00;;;-0.23;100.00
36062;BME280;22123;52.412;20.970;2024-01-15T11:53:48;97986.16;;;-0.05;100.00
36062;BME280;22123;52.412;20.970;2024-01-15T11:56:17;97937.38;;;-0.35;100.00
36062;BME280;22123;52.412;20.970;2024-01-15T11:58:43;97992.13;;;-0.03;100.00
36062;BME280;22123;52.412;20.970;2024-01-15T12:01:10;97979.38;;;0.01;100.00
36062;BME280;22123;52.412;20.970;2024-01-15T12:03:36;97940.19;;;-0.28;100.00
36062;BME280;22123;52.412;20.970;2024-01-15T12:06:05;97959.38;;;-0.18;100.00
36062;BME280;22123;52.412;20.970;2024-01-15T12:08:31;97920.06;;;-0.38;100.00
36062;BME280;22123;52.412;20.970;2024-01-15T12:10:57;97971.94;;;0.05;100.00
36062;BME280;22123;52.412;20.970;2024-01-15T12:13:23;97973.75;;;0.04;100.00
36062;BME280;22123;52.412;20.970;2024-01-15T12:15:49;97931.44;;;-0.12;100.00
36062;BME280;22123;52.412;20.970;2024-01-15T12:18:16;97963.84;;;0.06;100.00
36062;BME280;22123;52.412;20.970;2024-01-15T12:20:43;97936.91;;;-0.06;100.00
36062;BME280;22123;52.412;20.970;2024-01-15T12:23:09;97988.13;;;0.10;100.00
36062;BME280;22123;52.412;20.970;2024-01-15T12:25:36;97962.50;;;-0.06;100.00
36062;BME280;22123;52.412;20.970;2024-01-15T12:28:02;97952.94;;;-0.15;100.00
36062;BME280;22123;52.412;20.970;2024-01-15T12:30:28;97946.81;;;-0.32;100.00
36062;BME280;22123;52.412;20.970;2024-01-15T12:32:55;97906.97;;;-0.56;100.00
36062;BME280;22123;52.412;20.970;2024-01-15T12:35:21;97942.34;;;-0.40;100.00
36062;BME280;22123;52.412;20.970;2024-01-15T12:37:47;97943.84;;;-0.21;100.00
36062;BME280;22123;52.412;20.970;2024-01-15T12:40:18;97941.19;;;-0.29;100.00